Time;durP1;ratioP1;P1;durP2;ratioP2;P2;SDS_P1;SDS_P2;PMS_P1;PMS_P2;Temp;Humidity;BMP_temperature;BMP_pressure;BME280_temperature;BME280_humidity;BME280_pressure;Samples;Min_cycle;Max_cycle;Signal;HPM_P1;HPM_P2
2022/05/22 00:02:17;;;;;;;9.60;4.25;;;10.30;99.90;;;;;;5006784;28;20100;-69
2022/05/22 00:04:44;;;;;;;5.95;3.38;;;10.30;99.90;;;;;;5007489;28;20056;-69
2022/05/22 00:07:09;;;;;;;6.50;3.08;;;10.30;99.90;;;;;;5005888;28;20054;-69
2022/05/22 00:09:36;;;;;;;8.32;3.67;;;10.30;99.90;;;;;;5005584;28;20145;-69
2022/05/22 00:12:03;;;;;;;9.48;3.72;;;10.20;99.90;;;;;;5007487;28;20089;-69
2022/05/22 00:14:29;;;;;;;5.15;3.22;;;10.20;99.90;;;;;;5007087;28;20053;-69
2022/05/22 00:16:54;;;;;;;8.60;4.47;;;10.20;99.90;;;;;;5007451;28;20049;-69
2022/05/22 00:19:23;;;;;;;5.38;3.80;;;10.10;99.90;;;;;;5007168;28;20046;-69
2022/05/22 00:21:49;;;;;;;4.82;3.75;;;10.10;99.90;;;;;;5004882;28;20457;-69
2022/05/22 00:24:17;;;;;;;9.07;3.65;;;10.10;99.90;;;;;;5005775;28;20050;-69
2022/05/22 00:26:43;;;;;;;9.43;3.78;;;10.10;99.90;;;;;;5007538;28;20056;-69
2022/05/22 00:29:09;;;;;;;6.03;3.15;;;10.10;99.90;;;;;;5006451;28;20373;-69
2022/05/22 00:31:34;;;;;;;5.70;3.53;;;10.10;99.90;;;;;;5005840;28;20104;-69
2022/05/22 00:34:00;;;;;;;4.13;3.30;;;10.00;99.90;;;;;;5007022;28;20400;-69
2022/05/22 00:36:26;;;;;;;9.38;3.97;;;10.00;99.90;;;;;;5006391;28;20089;-69
2022/05/22 00:38:51;;;;;;;8.57;4.07;;;10.00;99.90;;;;;;5007116;28;20044;-69
2022/05/22 00:41:18;;;;;;;6.18;3.22;;;9.90;99.90;;;;;;5007004;28;20046;-69
2022/05/22 00:43:47;;;;;;;10.13;4.03;;;9.90;99.90;;;;;;5006016;28;20057;-69
2022/05/22 00:46:16;;;;;;;4.68;4.05;;;9.90;99.90;;;;;;5006887;28;20048;-69
2022/05/22 00:48:44;;;;;;;6.05;4.05;;;9.90;99.90;;;;;;5005516;28;20054;-69
2022/05/22 00:51:17;;;;;;;8.88;4.25;;;9.90;99.90;;;;;;5005688;28;20543;-69
2022/05/22 00:53:49;;;;;;;8.18;4.18;;;9.90;99.90;;;;;;5006676;28;20400;-69
2022/05/22 00:56:18;;;;;;;;;;;9.80;99.90;;;;;;5007069;28;20117;-69
2022/05/22 00:58:45;;;;;;;8.32;3.90;;;9.80;99.90;;;;;;5020237;28;19953;-69
2022/05/22 01:01:10;;;;;;;8.43;3.40;;;9.80;99.90;;;;;;5004953;28;20188;-69
2022/05/22 01:03:37;;;;;;;7.20;3.25;;;9.80;99.90;;;;;;5006031;28;20081;-69
2022/05/22 01:06:06;;;;;;;5.07;3.30;;;9.80;99.90;;;;;;5006281;28;20049;-69
2022/05/22 01:08:34;;;;;;;5.00;3.08;;;9.80;99.90;;;;;;5007098;28;20077;-68
2022/05/22 01:11:10;;;;;;;5.63;3.60;;;9.70;99.90;;;;;;5006025;28;20400;-69
2022/05/22 01:13:43;;;;;;;3.28;2.72;;;9.70;99.90;;;;;;5006589;28;20064;-69
2022/05/22 01:16:10;;;;;;;5.00;2.90;;;9.70;99.90;;;;;;5006520;28;20049;-69
2022/05/22 01:18:55;;;;;;;7.70;2.65;;;9.60;99.90;;;;;;5004685;28;20107;-69
2022/05/22 01:21:25;;;;;;;2.45;2.25;;;9.60;99.90;;;;;;5006537;28;20058;-69
2022/05/22 01:23:51;;;;;;;2.97;2.30;;;9.50;99.90;;;;;;5008120;28;20100;-69
2022/05/22 01:26:19;;;;;;;2.83;2.53;;;9.40;99.90;;;;;;5008417;28;20054;-69
2022/05/22 01:28:44;;;;;;;3.55;3.08;;;9.40;99.90;;;;;;5010591;28;20053;-69
2022/05/22 01:31:11;;;;;;;4.38;2.67;;;9.30;99.90;;;;;;5008797;28;20054;-69
2022/05/22 01:33:38;;;;;;;3.83;2.78;;;9.40;99.90;;;;;;5009593;28;20500;-69
2022/05/22 01:36:04;;;;;;;4.15;3.05;;;9.40;99.90;;;;;;5009127;28;20053;-69
2022/05/22 01:38:31;;;;;;;4.13;2.67;;;9.30;99.90;;;;;;5010734;28;20053;-69
2022/05/22 01:40:56;;;;;;;2.85;2.60;;;9.20;99.90;;;;;;5010120;28;20057;-69
2022/05/22 01:43:22;;;;;;;4.18;2.67;;;9.20;99.90;;;;;;5010212;28;20046;-69
2022/05/22 01:45:48;;;;;;;4.13;3.00;;;9.20;99.90;;;;;;5009627;28;20508;-69
2022/05/22 01:48:13;;;;;;;5.13;2.85;;;9.20;99.90;;;;;;5010150;28;20038;-69
2022/05/22 01:50:45;;;;;;;3.95;2.97;;;9.10;99.90;;;;;;5010114;28;20145;-69
2022/05/22 01:53:11;;;;;;;3.97;2.97;;;9.10;99.90;;;;;;5007645;28;20058;-69
2022/05/22 01:55:37;;;;;;;2.72;2.50;;;9.10;99.90;;;;;;5010306;28;20037;-69
2022/05/22 01:58:06;;;;;;;3.10;2.80;;;9.10;99.90;;;;;;5008789;28;20120;-69
2022/05/22 02:00:32;;;;;;;5.00;2.42;;;9.10;99.90;;;;;;5009448;28;20061;-69
2022/05/22 02:03:02;;;;;;;4.97;2.45;;;9.10;99.90;;;;;;5010417;28;20065;-69
2022/05/22 02:05:27;;;;;;;4.03;2.75;;;9.00;99.90;;;;;;5010064;28;20129;-69
2022/05/22 02:10:38;;;;;;;3.83;3.03;;;9.00;99.90;;;;;;5009719;28;20053;-69
2022/05/22 02:13:05;;;;;;;3.42;2.95;;;9.00;99.90;;;;;;5009533;28;20045;-69
2022/05/22 02:15:31;;;;;;;3.60;2.70;;;9.00;99.90;;;;;;5009281;28;20049;-69
2022/05/22 02:17:57;;;;;;;3.70;2.78;;;9.00;99.90;;;;;;5008704;28;20061;-68
2022/05/22 02:20:23;;;;;;;4.97;3.08;;;9.00;99.90;;;;;;5009554;28;20403;-69
2022/05/22 02:22:54;;;;;;;4.50;3.13;;;9.00;99.90;;;;;;5008848;28;20058;-69
2022/05/22 02:25:24;;;;;;;3.15;2.60;;;9.00;99.90;;;;;;5009223;28;20504;-69
2022/05/22 02:27:49;;;;;;;3.95;2.90;;;9.00;99.90;;;;;;5008289;28;20120;-69
2022/05/22 02:30:19;;;;;;;3.67;2.75;;;9.00;99.90;;;;;;5008534;28;20778;-69
2022/05/22 02:32:45;;;;;;;6.00;3.40;;;8.90;99.90;;;;;;5007938;28;20060;-69
2022/05/22 02:35:12;;;;;;;4.00;3.20;;;9.00;99.90;;;;;;5006131;28;20132;-69
2022/05/22 02:37:47;;;;;;;5.25;3.13;;;9.00;99.90;;;;;;5009278;28;20038;-69
2022/05/22 02:40:15;;;;;;;4.00;3.13;;;9.00;99.90;;;;;;5007640;28;20465;-69
2022/05/22 02:42:42;;;;;;;7.25;3.78;;;9.00;99.90;;;;;;5008290;28;20049;-69
2022/05/22 02:45:09;;;;;;;3.20;2.90;;;9.00;99.90;;;;;;5007547;28;20053;-69
2022/05/22 02:47:35;;;;;;;5.20;3.42;;;9.00;99.90;;;;;;5008773;28;20527;-69
2022/05/22 02:50:01;;;;;;;3.67;2.97;;;9.00;99.90;;;;;;5008473;28;20085;-69
2022/05/22 02:52:26;;;;;;;7.80;3.72;;;9.00;99.90;;;;;;5007945;28;20073;-69
2022/05/22 02:54:52;;;;;;;5.28;3.47;;;9.00;99.90;;;;;;5007455;28;20320;-69
2022/05/22 02:57:21;;;;;;;6.93;3.10;;;8.90;99.90;;;;;;5008100;28;20595;-69
2022/05/22 02:59:50;;;;;;;3.38;2.60;;;8.90;99.90;;;;;;5008615;28;20073;-69
2022/05/22 03:02:16;;;;;;;4.22;2.47;;;8.90;99.90;;;;;;5007297;28;20072;-69
2022/05/22 03:04:42;;;;;;;3.38;2.38;;;8.90;99.90;;;;;;5008160;28;20411;-69
2022/05/22 03:07:13;;;;;;;5.70;2.72;;;8.80;99.90;;;;;;5008443;28;20045;-69
2022/05/22 03:09:41;;;;;;;3.45;2.90;;;8.80;99.90;;;;;;5008730;28;20120;-69
2022/05/22 03:12:09;;;;;;;4.95;3.13;;;8.80;99.90;;;;;;5006223;28;20125;-69
2022/05/22 03:14:34;;;;;;;3.70;3.22;;;8.80;99.90;;;;;;5007606;28;20062;-69
2022/05/22 03:17:01;;;;;;;8.18;3.17;;;8.80;99.90;;;;;;5008272;28;20052;-69
2022/05/22 03:19:26;;;;;;;7.95;3.33;;;8.80;99.90;;;;;;5006795;28;20135;-68
2022/05/22 03:21:52;;;;;;;5.32;4.00;;;8.80;99.90;;;;;;5008306;28;20046;-69
2022/05/22 03:24:18;;;;;;;5.95;3.38;;;8.80;99.90;;;;;;5006055;28;20085;-69
2022/05/22 03:26:43;;;;;;;5.45;3.33;;;8.80;99.90;;;;;;5020334;28;20072;-69
2022/05/22 03:29:09;;;;;;;5.38;3.00;;;8.80;99.90;;;;;;5027706;28;20052;-69
2022/05/22 03:31:35;;;;;;;5.53;2.95;;;8.80;99.90;;;;;;5025709;28;20107;-69
2022/05/22 03:34:00;;;;;;;5.43;3.00;;;8.70;99.90;;;;;;5028087;28;20427;-69
2022/05/22 03:36:26;;;;;;;5.65;3.08;;;8.70;99.90;;;;;;5028134;28;20124;-68
2022/05/22 03:38:51;;;;;;;2.60;2.40;;;8.70;99.90;;;;;;5025807;28;20041;-69
2022/05/22 03:41:17;;;;;;;4.82;2.97;;;8.80;99.90;;;;;;5027568;28;20463;-68
2022/05/22 03:43:42;;;;;;;3.03;2.53;;;8.70;99.90;;;;;;5026505;28;20083;-69
2022/05/22 03:46:08;;;;;;;4.10;3.10;;;8.70;99.90;;;;;;5026200;28;20108;-69
2022/05/22 03:48:33;;;;;;;5.20;3.05;;;8.80;99.90;;;;;;5026579;28;20059;-69
2022/05/22 03:50:59;;;;;;;4.55;3.20;;;8.80;99.90;;;;;;5026450;28;20138;-69
2022/05/22 03:53:25;;;;;;;6.47;3.35;;;8.80;99.90;;;;;;5027237;28;20611;-68
2022/05/22 03:55:50;;;;;;;7.80;3.28;;;8.80;99.90;;;;;;5027621;28;20102;-69
2022/05/22 03:58:17;;;;;;;4.35;3.33;;;8.80;99.90;;;;;;5027082;28;20535;-69
2022/05/22 04:00:43;;;;;;;5.03;2.72;;;8.80;99.90;;;;;;5025109;28;20053;-69
2022/05/22 04:03:09;;;;;;;5.47;2.65;;;8.80;99.90;;;;;;5026092;28;20087;-69
2022/05/22 04:05:35;;;;;;;5.97;3.20;;;8.80;99.90;;;;;;5027380;28;20070;-69
2022/05/22 04:08:01;;;;;;;7.47;4.15;;;8.80;99.90;;;;;;5026671;28;20397;-68
2022/05/22 04:10:26;;;;;;;8.05;3.97;;;8.80;99.90;;;;;;5027070;28;20045;-68
2022/05/22 04:12:52;;;;;;;5.70;3.80;;;8.90;99.90;;;;;;5025738;28;20132;-69
2022/05/22 04:15:21;;;;;;;4.05;3.35;;;8.80;99.90;;;;;;5026587;28;20139;-68
2022/05/22 04:17:47;;;;;;;4.53;3.70;;;8.90;99.90;;;;;;5025793;28;20068;-68
2022/05/22 04:20:14;;;;;;;5.68;3.58;;;8.90;99.90;;;;;;5027005;28;20045;-68
2022/05/22 04:25:25;;;;;;;5.97;4.25;;;9.00;99.90;;;;;;5025556;28;20053;-69
2022/05/22 04:27:51;;;;;;;6.72;4.22;;;9.00;99.90;;;;;;5026467;28;20375;-69
2022/05/22 04:30:20;;;;;;;6.55;4.05;;;9.10;99.90;;;;;;5026653;28;20049;-68
2022/05/22 04:32:50;;;;;;;4.22;3.83;;;9.10;99.90;;;;;;5026804;28;20124;-69
2022/05/22 04:35:17;;;;;;;5.70;4.35;;;9.20;99.90;;;;;;5025268;28;20502;-68
2022/05/22 04:37:42;;;;;;;14.15;5.90;;;9.30;99.90;;;;;;5026763;28;20376;-68
2022/05/22 04:40:10;;;;;;;5.90;4.57;;;9.30;99.90;;;;;;5026249;28;20044;-68
2022/05/22 04:42:37;;;;;;;7.32;4.20;;;9.30;99.90;;;;;;5026154;28;20409;-69
2022/05/22 04:45:05;;;;;;;9.52;5.40;;;10.10;99.90;;;;;;5026579;28;20041;-69
2022/05/22 04:47:34;;;;;;;9.93;5.38;;;9.40;99.90;;;;;;5026773;28;20057;-69
2022/05/22 04:49:59;;;;;;;16.42;4.78;;;9.50;99.90;;;;;;5025914;28;20072;-69
2022/05/22 04:52:25;;;;;;;9.48;4.57;;;9.50;99.90;;;;;;5026473;28;20076;-68
2022/05/22 04:54:52;;;;;;;10.15;4.40;;;9.60;99.90;;;;;;5026722;28;20128;-69
2022/05/22 04:57:18;;;;;;;13.02;5.00;;;9.60;99.90;;;;;;5025524;28;20053;-69
2022/05/22 04:59:43;;;;;;;7.82;4.50;;;9.70;99.90;;;;;;5025553;28;20041;-69
2022/05/22 05:02:10;;;;;;;12.13;4.80;;;9.70;99.90;;;;;;5026398;28;20562;-69
2022/05/22 05:04:35;;;;;;;11.52;4.80;;;9.70;99.90;;;;;;5025590;28;20049;-69
2022/05/22 05:07:08;;;;;;;7.03;4.18;;;9.80;99.90;;;;;;5021005;28;20058;-69
2022/05/22 05:09:35;;;;;;;11.95;4.60;;;9.80;99.90;;;;;;5025273;28;20045;-69
2022/05/22 05:12:03;;;;;;;10.80;4.35;;;9.90;99.90;;;;;;5023977;28;20053;-69
2022/05/22 05:14:29;;;;;;;8.63;3.90;;;9.90;99.90;;;;;;5025863;28;20081;-69
2022/05/22 05:16:54;;;;;;;7.25;4.47;;;9.90;99.90;;;;;;5024751;28;20393;-69
2022/05/22 05:19:20;;;;;;;10.82;4.53;;;10.00;99.90;;;;;;5023785;28;20065;-70
2022/05/22 05:21:49;;;;;;;10.95;4.80;;;10.10;99.90;;;;;;5025095;28;20053;-69
2022/05/22 05:24:14;;;;;;;11.32;4.85;;;10.10;99.90;;;;;;5020898;28;20146;-69
2022/05/22 05:26:40;;;;;;;10.80;5.80;;;10.20;99.90;;;;;;5023530;28;20517;-69
2022/05/22 05:29:07;;;;;;;10.88;5.50;;;10.30;99.90;;;;;;5024661;28;20069;-69
2022/05/22 05:31:35;;;;;;;10.45;5.30;;;10.40;99.90;;;;;;5024154;28;20099;-69
2022/05/22 05:34:01;;;;;;;13.60;5.82;;;10.40;99.90;;;;;;5024768;28;20073;-69
2022/05/22 05:36:29;;;;;;;9.55;5.95;;;10.50;99.90;;;;;;5025621;28;20065;-69
2022/05/22 05:38:54;;;;;;;16.80;6.30;;;10.60;99.90;;;;;;5024460;28;20041;-69
2022/05/22 05:41:20;;;;;;;14.75;6.50;;;10.70;99.90;;;;;;5025178;28;20054;-69
2022/05/22 05:43:46;;;;;;;13.73;6.63;;;10.80;99.90;;;;;;5024884;28;20049;-69
2022/05/22 05:46:11;;;;;;;9.80;6.60;;;10.90;99.90;;;;;;5024200;28;20049;-69
2022/05/22 05:48:37;;;;;;;12.40;6.53;;;11.10;99.90;;;;;;5023656;28;20046;-69
2022/05/22 05:51:02;;;;;;;12.98;6.72;;;11.10;99.90;;;;;;5024704;28;20053;-69
2022/05/22 05:53:30;;;;;;;11.52;7.05;;;11.30;99.90;;;;;;5024197;28;20068;-69
2022/05/22 05:55:56;;;;;;;18.25;8.20;;;11.30;99.90;;;;;;5024919;28;20045;-69
2022/05/22 05:58:21;;;;;;;11.35;6.68;;;11.50;99.90;;;;;;5024860;28;20095;-69
2022/05/22 06:00:50;;;;;;;18.92;7.63;;;11.60;99.90;;;;;;5023829;28;20080;-69
2022/05/22 06:03:15;;;;;;;14.05;7.55;;;11.60;99.90;;;;;;5023090;28;20069;-69
2022/05/22 06:05:44;;;;;;;20.10;8.73;;;11.80;99.90;;;;;;5023440;28;20056;-69
2022/05/22 06:08:09;;;;;;;20.10;8.18;;;11.90;99.90;;;;;;5023807;28;20576;-69
2022/05/22 06:10:37;;;;;;;20.05;8.43;;;12.00;99.90;;;;;;5027293;28;20132;-69
2022/05/22 06:13:03;;;;;;;19.83;8.57;;;12.10;99.90;;;;;;5027561;28;20116;-72
2022/05/22 06:15:28;;;;;;;15.48;8.15;;;12.20;99.90;;;;;;5027438;28;20562;-70
2022/05/22 06:17:56;;;;;;;21.90;7.88;;;12.20;99.90;;;;;;5028367;28;20050;-69
2022/05/22 06:20:22;;;;;;;16.65;7.35;;;12.30;99.90;;;;;;5027749;28;20765;-69
2022/05/22 06:22:48;;;;;;;13.48;7.53;;;12.40;99.90;;;;;;5026885;28;20056;-69
2022/05/22 06:25:17;;;;;;;16.42;7.20;;;12.50;99.90;;;;;;5027839;28;20034;-69
2022/05/22 06:27:43;;;;;;;19.98;7.57;;;12.60;99.90;;;;;;5027510;28;20045;-69
2022/05/22 06:30:12;;;;;;;17.67;6.82;;;12.60;99.90;;;;;;5026017;28;20087;-68
2022/05/22 06:32:42;;;;;;;19.50;7.25;;;12.70;99.90;;;;;;5024205;28;20567;-69
2022/05/22 06:35:10;;;;;;;17.63;6.68;;;12.80;99.90;;;;;;5025717;28;20060;-69
2022/05/22 06:37:39;;;;;;;17.58;6.93;;;12.80;99.90;;;;;;5026264;28;20119;-69
2022/05/22 06:40:09;;;;;;;23.92;7.00;;;12.80;99.90;;;;;;5026382;28;20073;-69
2022/05/22 06:42:42;;;;;;;11.60;6.03;;;12.90;99.90;;;;;;5027251;28;20042;-70
2022/05/22 06:45:11;;;;;;;;;;;13.00;99.90;;;;;;5028178;28;20128;-69
2022/05/22 06:47:37;;;;;;;15.85;6.70;;;13.10;99.90;;;;;;5027085;28;19936;-70
2022/05/22 06:50:10;;;;;;;16.83;6.82;;;13.10;99.90;;;;;;5026598;28;20648;-70
2022/05/22 06:52:36;;;;;;;11.40;5.35;;;13.20;99.90;;;;;;5027645;28;20049;-69
2022/05/22 06:55:03;;;;;;;24.63;7.05;;;13.30;99.90;;;;;;5027200;28;20052;-69
2022/05/22 06:57:29;;;;;;;16.95;4.85;;;13.40;99.90;;;;;;5026085;28;20049;-71
2022/05/22 06:59:56;;;;;;;18.83;5.85;;;13.50;99.90;;;;;;5027270;28;20160;-70
2022/05/22 07:02:24;;;;;;;15.38;5.57;;;13.50;99.90;;;;;;5026744;28;20400;-70
2022/05/22 07:04:50;;;;;;;11.30;4.97;;;13.60;99.90;;;;;;5026784;28;20403;-69
2022/05/22 07:07:16;;;;;;;13.50;4.88;;;13.70;99.90;;;;;;5025627;28;20407;-69
2022/05/22 07:09:42;;;;;;;13.38;4.82;;;13.80;99.90;;;;;;5026241;28;20049;-69
2022/05/22 07:12:12;;;;;;;10.55;5.10;;;13.90;99.90;;;;;;5026106;28;20042;-69
2022/05/22 07:14:38;;;;;;;14.93;4.97;;;13.90;99.90;;;;;;5027626;28;20056;-70
2022/05/22 07:17:05;;;;;;;14.60;4.75;;;14.00;99.90;;;;;;5024229;28;20037;-69
2022/05/22 07:19:34;;;;;;;17.52;5.50;;;14.10;99.90;;;;;;5028545;28;20045;-70
2022/05/22 07:22:04;;;;;;;10.57;5.82;;;14.20;99.90;;;;;;5027487;28;20045;-69
2022/05/22 07:24:29;;;;;;;14.65;4.55;;;14.40;99.90;;;;;;5027597;28;20060;-69
2022/05/22 07:26:55;;;;;;;11.05;4.43;;;14.50;99.90;;;;;;5028561;28;20042;-70
2022/05/22 07:29:20;;;;;;;11.95;3.72;;;14.50;99.90;;;;;;5027449;28;20044;-69
2022/05/22 07:31:46;;;;;;;10.90;3.55;;;14.60;99.90;;;;;;5026494;28;20135;-70
2022/05/22 07:34:15;;;;;;;15.63;4.88;;;14.70;99.90;;;;;;5023881;28;20503;-70
2022/05/22 07:36:41;;;;;;;11.02;3.95;;;14.80;99.90;;;;;;5026986;28;20049;-69
2022/05/22 07:39:07;;;;;;;9.35;3.45;;;14.90;99.90;;;;;;5025548;28;20377;-69
2022/05/22 07:41:35;;;;;;;8.00;3.33;;;15.00;99.90;;;;;;5027114;28;20396;-70
2022/05/22 07:44:00;;;;;;;8.35;4.30;;;15.10;99.90;;;;;;5026020;28;20052;-69
2022/05/22 07:46:27;;;;;;;12.32;4.25;;;15.20;99.90;;;;;;5026437;28;20053;-69
2022/05/22 07:48:53;;;;;;;9.68;3.67;;;15.20;99.90;;;;;;5025691;28;20556;-70
2022/05/22 07:51:19;;;;;;;7.05;2.95;;;15.30;99.90;;;;;;5026238;28;20573;-69
2022/05/22 07:53:45;;;;;;;6.63;2.63;;;15.30;99.90;;;;;;5024345;28;20051;-70
2022/05/22 07:56:12;;;;;;;6.57;3.05;;;15.30;99.90;;;;;;5025443;28;20042;-70
2022/05/22 07:58:39;;;;;;;4.35;2.03;;;15.40;99.90;;;;;;5024980;28;20045;-74
2022/05/22 08:01:04;;;;;;;5.32;2.03;;;15.50;99.90;;;;;;5021331;28;20132;-71
2022/05/22 08:03:33;;;;;;;9.85;2.30;;;15.60;99.90;;;;;;5025645;28;20200;-69
2022/05/22 08:06:00;;;;;;;6.88;2.17;;;15.70;99.90;;;;;;5023096;28;20041;-77
2022/05/22 08:08:26;;;;;;;3.78;1.50;;;15.80;99.90;;;;;;5024605;28;20061;-68
2022/05/22 08:10:53;;;;;;;5.63;1.63;;;15.90;99.90;;;;;;5025034;28;20041;-68
2022/05/22 08:13:19;;;;;;;8.38;1.85;;;15.90;99.90;;;;;;5024352;28;20496;-68
2022/05/22 08:15:48;;;;;;;4.70;1.70;;;15.90;99.90;;;;;;5022300;28;20415;-68
2022/05/22 08:18:14;;;;;;;5.95;1.95;;;16.00;99.90;;;;;;5025901;28;20148;-69
2022/05/22 08:20:43;;;;;;;8.77;2.50;;;16.00;99.90;;;;;;5024774;28;20403;-69
2022/05/22 08:23:16;;;;;;;7.57;2.05;;;16.10;99.90;;;;;;5025998;28;20353;-68
2022/05/22 08:25:41;;;;;;;4.05;1.67;;;16.10;99.90;;;;;;5024580;28;20502;-69
2022/05/22 08:28:07;;;;;;;8.55;2.42;;;16.10;99.90;;;;;;5024405;28;20037;-68
2022/05/22 08:30:33;;;;;;;7.60;1.73;;;16.20;99.90;;;;;;5025612;28;20136;-68
2022/05/22 08:33:01;;;;;;;5.80;1.85;;;16.30;99.90;;;;;;5023269;28;20357;-68
2022/05/22 08:35:31;;;;;;;6.15;1.90;;;16.30;99.90;;;;;;5024740;28;20411;-68
2022/05/22 08:37:57;;;;;;;7.97;1.88;;;16.40;99.90;;;;;;5024467;28;20384;-69
2022/05/22 08:40:25;;;;;;;8.35;1.70;;;16.50;99.90;;;;;;5023480;28;20049;-69
2022/05/22 08:43:10;;;;;;;5.13;1.85;;;16.60;99.90;;;;;;5022930;28;20049;-69
2022/05/22 08:45:42;;;;;;;9.00;2.08;;;16.60;99.90;;;;;;5024670;28;20547;-69
2022/05/22 08:48:13;;;;;;;;;;;16.70;99.90;;;;;;5023929;28;20488;-69
2022/05/22 08:50:41;;;;;;;6.55;1.67;;;16.70;99.90;;;;;;5020884;28;19971;-69
2022/05/22 08:53:15;;;;;;;8.55;1.65;;;16.70;99.90;;;;;;5024048;28;20049;-69
2022/05/22 09:01:30;;;;;;;10.40;1.98;;;16.80;99.90;;;;;;5021283;28;20057;-69
2022/05/22 09:04:12;;;;;;;5.60;1.92;;;16.90;99.90;;;;;;5022436;28;20056;-69
2022/05/22 09:07:04;;;;;;;6.90;1.40;;;17.00;99.90;;;;;;5023083;28;20365;-69
2022/05/22 09:09:31;;;;;;;;;;;17.00;99.90;;;;;;5019763;28;20106;-69
2022/05/22 09:12:15;;;;;;;5.15;1.73;;;16.90;99.90;;;;;;5023025;28;19925;-68
2022/05/22 09:15:07;;;;;;;10.05;2.42;;;17.00;99.90;;;;;;5021914;28;20056;-69
2022/05/22 09:17:40;;;;;;;6.15;1.75;;;17.00;99.90;;;;;;5020356;28;20091;-68
2022/05/22 09:20:17;;;;;;;9.00;1.95;;;17.10;99.90;;;;;;5021281;28;20499;-68
2022/05/22 09:23:11;;;;;;;12.93;2.67;;;17.20;99.90;;;;;;5024493;28;20049;-69
2022/05/22 09:26:06;;;;;;;9.80;2.10;;;17.30;99.90;;;;;;5023285;28;20551;-69
2022/05/22 09:28:44;;;;;;;8.00;2.53;;;17.50;99.90;;;;;;5018826;28;20058;-69
2022/05/22 09:31:33;;;;;;;8.30;2.72;;;17.60;99.90;;;;;;5022539;28;20054;-68
2022/05/22 09:34:08;;;;;;;7.82;2.83;;;17.70;99.90;;;;;;5022486;28;20424;-69
2022/05/22 09:37:07;;;;;;;7.63;2.35;;;17.80;99.90;;;;;;5022306;28;20373;-69
2022/05/22 09:39:48;;;;;;;5.13;2.65;;;18.00;99.90;;;;;;5019827;28;20069;-70
2022/05/22 09:42:39;;;;;;;6.40;2.50;;;18.10;99.90;;;;;;5022296;28;20068;-69
2022/05/22 09:45:40;;;;;;;6.40;2.08;;;18.30;99.90;;;;;;5023762;28;20127;-69
2022/05/22 09:48:21;;;;;;;13.73;3.00;;;18.30;99.90;;;;;;4986151;28;20077;-68
2022/05/22 09:50:51;;;;;;;7.87;2.43;;;19.00;99.90;;;;;;5024078;28;20469;-68
2022/05/22 09:53:24;;;;;;;5.90;2.35;;;18.30;99.90;;;;;;5025751;28;20316;-68
2022/05/22 09:55:52;;;;;;;7.72;2.22;;;18.40;99.90;;;;;;5026202;28;20448;-68
2022/05/22 09:58:42;;;;;;;7.53;2.67;;;18.30;99.90;;;;;;5025653;28;20049;-68
2022/05/22 10:01:29;;;;;;;6.25;2.25;;;18.40;99.90;;;;;;5026343;28;20064;-68
2022/05/22 10:04:00;;;;;;;8.32;2.47;;;18.40;99.90;;;;;;5028181;28;20080;-69
2022/05/22 10:06:35;;;;;;;9.82;2.50;;;18.60;99.90;;;;;;5026559;28;20049;-68
2022/05/22 10:09:23;;;;;;;5.32;2.22;;;18.80;99.90;;;;;;5019255;28;20088;-68
2022/05/22 10:12:05;;;;;;;4.43;1.83;;;18.90;99.90;;;;;;5019588;28;20049;-68
2022/05/22 10:15:06;;;;;;;6.78;2.25;;;19.00;99.90;;;;;;5025816;28;20115;-69
2022/05/22 10:17:54;;;;;;;6.85;2.15;;;18.90;99.90;;;;;;5025034;28;20107;-69
2022/05/22 10:20:22;;;;;;;6.78;2.50;;;18.80;99.90;;;;;;5025049;28;20049;-68
2022/05/22 10:23:17;;;;;;;5.32;2.03;;;18.70;99.90;;;;;;5025439;28;20484;-69
2022/05/22 10:25:54;;;;;;;7.82;1.58;;;18.60;99.90;;;;;;5024491;28;20064;-68
2022/05/22 10:28:28;;;;;;;5.55;2.05;;;18.60;99.90;;;;;;5025392;28;20397;-68
2022/05/22 10:31:16;;;;;;;6.60;2.00;;;18.70;99.90;;;;;;5025623;28;20057;-68
2022/05/22 10:34:19;;;;;;;7.00;2.10;;;18.80;99.90;;;;;;5025614;28;20049;-68
2022/05/22 10:36:55;;;;;;;5.40;2.08;;;18.70;99.90;;;;;;5021849;28;20054;-68
2022/05/22 10:39:20;;;;;;;6.32;1.85;;;18.70;99.90;;;;;;5027384;28;20056;-68
2022/05/22 10:45:00;;;;;;;7.32;2.65;;;18.90;99.90;;;;;;5025388;28;20057;-68
2022/05/22 10:47:28;;;;;;;4.28;1.73;;;19.00;99.90;;;;;;5026848;28;20064;-68
2022/05/22 10:49:54;;;;;;;4.07;1.63;;;19.00;99.90;;;;;;5027200;28;20048;-68
2022/05/22 10:52:26;;;;;;;5.00;2.00;;;19.00;99.90;;;;;;5025446;28;20049;-68
2022/05/22 10:54:54;;;;;;;5.45;1.63;;;19.10;99.90;;;;;;5025784;28;20484;-68
2022/05/22 10:57:30;;;;;;;4.88;1.80;;;19.20;99.90;;;;;;5024310;28;20108;-68
2022/05/22 10:59:57;;;;;;;6.47;1.75;;;19.30;99.90;;;;;;5025178;28;20140;-68
2022/05/22 11:02:32;;;;;;;13.32;2.10;;;19.30;99.90;;;;;;5024538;28;20136;-68
2022/05/22 11:04:59;;;;;;;3.25;1.38;;;19.30;99.90;;;;;;5026422;28;20139;-69
2022/05/22 11:07:29;;;;;;;3.28;1.15;;;19.10;99.90;;;;;;5026320;28;20519;-68
2022/05/22 11:09:56;;;;;;;4.28;1.80;;;19.20;99.90;;;;;;5026651;28;20049;-68
2022/05/22 11:12:27;;;;;;;4.30;1.58;;;19.30;99.90;;;;;;5026512;28;20541;-68
2022/05/22 11:15:13;;;;;;;9.45;2.40;;;19.50;99.90;;;;;;5024635;28;20364;-75
2022/05/22 11:17:39;;;;;;;7.03;1.90;;;19.60;99.90;;;;;;5026485;28;20052;-67
2022/05/22 11:20:16;;;;;;;4.60;1.70;;;19.70;99.90;;;;;;5024951;28;20380;-68
2022/05/22 11:22:58;;;;;;;4.55;2.17;;;19.90;99.90;;;;;;5025454;28;20115;-67
2022/05/22 11:25:46;;;;;;;6.50;2.03;;;20.00;99.90;;;;;;5024144;28;20049;-68
2022/05/22 11:28:38;;;;;;;6.70;1.42;;;20.10;99.90;;;;;;5024954;28;20128;-68
2022/05/22 11:31:17;;;;;;;;;;;20.20;99.90;;;;;;5023568;28;20056;-67
2022/05/22 11:33:54;;;;;;;14.98;2.35;;;20.10;99.90;;;;;;5023737;28;19925;-67
2022/05/22 11:36:39;;;;;;;4.78;2.05;;;19.90;99.90;;;;;;5021400;28;20060;-67
2022/05/22 11:39:44;;;;;;;4.47;1.80;;;19.60;99.90;;;;;;5025056;28;20115;-67
2022/05/22 11:42:09;;;;;;;10.20;1.83;;;19.60;99.90;;;;;;5025667;28;20045;-68
2022/05/22 11:45:11;;;;;;;4.40;1.52;;;19.70;99.90;;;;;;5024728;28;20044;-68
2022/05/22 11:47:55;;;;;;;5.57;2.35;;;19.90;99.90;;;;;;5025992;28;20628;-68
2022/05/22 11:51:08;;;;;;;4.53;1.55;;;19.80;99.90;;;;;;5027155;28;20049;-68
2022/05/22 11:53:50;;;;;;;5.65;2.00;;;19.60;99.90;;;;;;5026026;28;20510;-68
2022/05/22 11:56:51;;;;;;;4.10;1.45;;;19.40;99.90;;;;;;5027035;28;20099;-67
2022/05/22 11:59:46;;;;;;;5.28;1.98;;;19.30;99.90;;;;;;5026379;28;20596;-68
2022/05/22 12:02:27;;;;;;;5.22;1.67;;;19.10;99.90;;;;;;5027305;28;20088;-68
2022/05/22 12:05:41;;;;;;;9.18;2.63;;;19.10;99.90;;;;;;5026972;28;20303;-68
2022/05/22 12:08:37;;;;;;;5.38;1.65;;;19.10;99.90;;;;;;4990625;28;20069;-68
2022/05/22 12:11:03;;;;;;;4.47;1.42;;;19.30;99.90;;;;;;5027104;28;20191;-68
2022/05/22 12:13:39;;;;;;;3.25;1.50;;;19.20;99.90;;;;;;5026705;28;20163;-68
2022/05/22 12:16:14;;;;;;;2.53;1.30;;;19.20;99.90;;;;;;5026962;28;20067;-68
2022/05/22 12:18:57;;;;;;;3.90;1.85;;;19.10;99.90;;;;;;5025866;28;20128;-68
2022/05/22 12:21:52;;;;;;;6.50;1.80;;;19.00;99.90;;;;;;5027177;28;20551;-67
2022/05/22 12:24:39;;;;;;;4.50;1.60;;;19.10;99.90;;;;;;5022632;28;20103;-68
2022/05/22 12:27:13;;;;;;;6.38;1.20;;;19.50;99.90;;;;;;5026101;28;20055;-68
2022/05/22 12:29:51;;;;;;;6.93;1.20;;;19.60;99.90;;;;;;5027447;28;20443;-68
2022/05/22 12:32:24;;;;;;;4.70;1.77;;;19.60;99.90;;;;;;5026710;28;20061;-68
2022/05/22 12:34:57;;;;;;;3.72;1.50;;;19.50;99.90;;;;;;5025960;28;20041;-68
2022/05/22 12:37:31;;;;;;;3.97;1.30;;;19.50;99.90;;;;;;5026866;28;20408;-67
2022/05/22 12:40:12;;;;;;;6.97;2.00;;;19.40;99.90;;;;;;5026534;28;20574;-67
2022/05/22 12:42:44;;;;;;;3.78;1.50;;;19.50;99.90;;;;;;5026928;28;20151;-68
2022/05/22 12:45:10;;;;;;;4.32;1.30;;;19.60;99.90;;;;;;5025522;28;20064;-67
2022/05/22 12:47:47;;;;;;;2.65;1.42;;;19.60;99.90;;;;;;5025969;28;20045;-67
2022/05/22 12:50:25;;;;;;;3.92;1.08;;;19.50;99.90;;;;;;5026378;28;20045;-68
2022/05/22 12:52:53;;;;;;;2.80;1.13;;;19.50;99.90;;;;;;5025433;28;20053;-68
2022/05/22 12:55:33;;;;;;;3.03;1.42;;;19.40;99.90;;;;;;5025884;28;20393;-68
2022/05/22 12:58:05;;;;;;;3.00;0.80;;;19.40;99.90;;;;;;5026464;28;20078;-67
2022/05/22 13:00:50;;;;;;;3.25;1.30;;;19.30;99.90;;;;;;5026596;28;20053;-68
2022/05/22 13:03:35;;;;;;;3.95;1.20;;;19.30;99.90;;;;;;5025673;28;20571;-67
2022/05/22 13:06:19;;;;;;;5.68;1.60;;;19.40;99.90;;;;;;5024355;28;20053;-68
2022/05/22 13:08:56;;;;;;;3.70;1.45;;;19.50;99.90;;;;;;5026092;28;20058;-68
2022/05/22 13:11:37;;;;;;;2.75;1.10;;;19.80;99.90;;;;;;5026330;28;20052;-68
2022/05/22 13:14:03;;;;;;;4.22;1.40;;;20.20;99.90;;;;;;5025285;28;20050;-67
2022/05/22 13:16:48;;;;;;;4.32;1.63;;;20.60;99.90;;;;;;5026394;28;20056;-68
2022/05/22 13:19:26;;;;;;;5.18;1.30;;;20.90;99.90;;;;;;5027912;28;20492;-68
2022/05/22 13:21:52;;;;;;;3.65;1.52;;;21.00;99.90;;;;;;5031735;28;20072;-68
2022/05/22 13:24:18;;;;;;;4.20;1.33;;;21.20;99.90;;;;;;5031874;28;20045;-68
2022/05/22 13:27:24;;;;;;;7.22;1.60;;;21.30;99.90;;;;;;5032609;28;20052;-68